Time;durP1;ratioP1;P1;durP2;ratioP2;P2;SDS_P1;SDS_P2;PMS_P1;PMS_P2;Temp;Humidity;BMP_temperature;BMP_pressure;BME280_temperature;BME280_humidity;BME280_pressure;Samples;Min_cycle;Max_cycle;Signal;HPM_P1;HPM_P2
2023/05/31 00:01:13;;;;;;;;;;;21.30;36.50;;;21.53;26.58;98986.06;5067708;27;123987;-76
2023/05/31 00:03:46;;;;;;;;;;;21.30;36.50;;;21.51;26.68;98993.25;5087427;27;119811;-77
2023/05/31 00:06:12;;;;;;;;;;;21.30;36.50;;;21.48;26.65;98982.78;5090292;27;119115;-77
2023/05/31 00:08:45;;;;;;;;;;;21.20;36.50;;;21.47;26.92;98973.53;5069056;27;124081;-78
2023/05/31 00:11:12;;;;;;;;;;;21.30;36.60;;;21.45;26.49;98981.53;5069681;27;123404;-78
2023/05/31 00:13:47;;;;;;;;;;;21.20;36.60;;;21.44;26.74;98979.94;5056857;27;119115;-77
2023/05/31 00:16:20;;;;;;;;;;;21.20;36.50;;;21.43;26.82;98978.28;5075784;27;118901;-78
2023/05/31 00:18:47;;;;;;;;;;;21.20;36.60;;;21.42;27.02;98985.13;5059600;27;123733;-78
2023/05/31 00:21:13;;;;;;;;;;;21.10;36.60;;;21.35;26.72;98977.34;5056383;27;123783;-78
2023/05/31 00:23:45;;;;;;;;;;;21.10;36.60;;;21.32;27.01;98974.50;5086913;27;120165;-78
2023/05/31 00:26:21;;;;;;;;;;;21.10;36.60;;;21.26;26.82;98979.63;5090744;27;119075;-77
2023/05/31 00:28:50;;;;;;;;;;;21.00;36.60;;;21.15;26.99;98971.06;5064033;27;124296;-78
2023/05/31 00:31:19;;;;;;;;;;;20.90;36.60;;;21.10;27.02;98973.38;5060862;27;123959;-76
2023/05/31 00:33:45;;;;;;;;;;;20.80;36.70;;;21.04;26.97;98981.34;5079095;27;120036;-77
2023/05/31 00:36:12;;;;;;;;;;;20.70;36.80;;;20.95;27.17;98969.53;5054510;27;118136;-77
2023/05/31 00:38:38;;;;;;;;;;;20.70;36.90;;;20.85;27.00;98975.81;5046579;27;127751;-78
2023/05/31 00:41:10;;;;;;;;;;;20.50;36.80;;;20.78;27.49;98972.91;5047745;27;123697;-76
2023/05/31 00:43:37;;;;;;;;;;;20.50;36.90;;;20.76;27.44;98981.69;5057887;27;119572;-76
2023/05/31 00:46:14;;;;;;;;;;;20.50;37.00;;;20.73;27.08;98982.44;5047455;27;119145;-77
2023/05/31 00:48:42;;;;;;;;;;;20.50;37.00;;;20.69;27.14;98979.59;5050068;27;124410;-76
2023/05/31 00:51:09;;;;;;;;;;;20.40;37.00;;;20.65;27.29;98967.47;5049921;27;123837;-77
2023/05/31 00:53:35;;;;;;;;;;;20.40;37.00;;;20.64;27.15;98968.66;5021417;27;119183;-77
2023/05/31 00:56:01;;;;;;;;;;;20.30;36.90;;;20.60;27.42;98973.41;5034531;27;118557;-76
2023/05/31 00:58:31;;;;;;;;;;;20.30;37.00;;;20.61;27.23;98969.41;5051705;27;124595;-77
2023/05/31 01:01:00;;;;;;;;;;;20.20;37.10;;;20.57;27.46;98965.72;5040972;27;124028;-76
2023/05/31 01:03:26;;;;;;;;;;;20.20;37.20;;;20.55;27.33;98970.91;5034447;27;118565;-78
2023/05/31 01:05:57;;;;;;;;;;;20.20;37.30;;;20.54;27.54;98974.09;5046939;27;118203;-77
2023/05/31 01:08:23;;;;;;;;;;;20.10;37.20;;;20.52;27.17;98971.63;5054851;27;124091;-76
2023/05/31 01:10:59;;;;;;;;;;;20.10;37.20;;;20.52;27.56;98975.25;5024645;27;124323;-76
2023/05/31 01:13:35;;;;;;;;;;;20.20;37.20;;;20.52;27.44;98974.44;5042155;27;120502;-77
2023/05/31 01:16:03;;;;;;;;;;;20.20;37.30;;;20.45;27.27;98977.13;5037045;27;120828;-78
2023/05/31 01:19:02;;;;;;;;;;;20.00;37.10;;;20.31;27.55;98980.50;5038793;27;124332;-76
2023/05/31 01:21:44;;;;;;;;;;;20.00;37.20;;;20.27;27.47;98972.00;4980866;28;124080;-76
2023/05/31 01:24:34;;;;;;;;;;;19.90;37.30;;;20.23;27.64;98965.53;5024767;28;118451;-76
2023/05/31 01:27:09;;;;;;;;;;;19.90;37.40;;;20.21;27.93;98973.50;5030185;27;118731;-75
2023/05/31 01:29:36;;;;;;;;;;;19.80;37.50;;;20.15;27.72;98962.94;5025754;27;124241;-76
2023/05/31 01:32:14;;;;;;;;;;;19.80;37.70;;;20.07;27.85;98957.22;5013703;27;122908;-76
2023/05/31 01:34:46;;;;;;;;;;;19.70;37.70;;;20.03;28.02;98973.16;5041813;27;119697;-76
2023/05/31 01:37:12;;;;;;;;;;;19.70;37.70;;;20.00;28.07;98973.09;5044292;27;119440;-76
2023/05/31 01:39:38;;;;;;;;;;;19.60;37.80;;;19.98;28.12;98964.25;5064248;27;124220;-78
2023/05/31 01:42:09;;;;;;;;;;;19.60;37.80;;;20.01;28.16;98969.09;5057054;27;123986;-76
2023/05/31 01:44:36;;;;;;;;;;;19.70;37.90;;;19.99;27.96;98969.50;5062606;27;119814;-78
2023/05/31 01:47:10;;;;;;;;;;;19.70;37.80;;;19.94;28.07;98971.78;5064405;27;118878;-76
2023/05/31 01:49:37;;;;;;;;;;;19.60;37.70;;;19.91;28.07;98964.09;5065064;27;124177;-77
2023/05/31 01:52:09;;;;;;;;;;;19.60;37.80;;;19.89;28.37;98974.88;5064458;27;126145;-77
2023/05/31 01:54:36;;;;;;;;;;;19.60;37.70;;;19.86;27.83;98968.84;5067262;27;120159;-76
2023/05/31 01:57:03;;;;;;;;;;;19.60;37.70;;;19.88;28.23;98976.06;5064119;27;118864;-76
2023/05/31 01:59:33;;;;;;;;;;;19.60;37.90;;;19.82;28.43;98973.53;5065101;27;124191;-76
2023/05/31 02:02:09;;;;;;;;;;;19.60;38.00;;;19.80;28.36;98975.94;5048701;27;123296;-77
2023/05/31 02:04:35;;;;;;;;;;;19.50;38.00;;;19.78;28.28;98980.28;5055919;27;120543;-78
2023/05/31 02:07:02;;;;;;;;;;;19.50;38.10;;;19.77;28.37;98976.69;5060021;27;119581;-77
2023/05/31 02:09:34;;;;;;;;;;;19.40;38.00;;;19.77;28.33;98975.84;5058686;27;124391;-77
2023/05/31 02:12:01;;;;;;;;;;;19.50;38.10;;;19.76;28.49;98980.63;5056057;27;124555;-77
2023/05/31 02:14:32;;;;;;;;;;;19.50;38.10;;;19.76;28.49;98985.44;5065650;27;119480;-76
2023/05/31 02:16:58;;;;;;;;;;;19.50;38.20;;;19.72;28.37;98981.75;5064874;27;118646;-76
2023/05/31 02:19:25;;;;;;;;;;;19.40;38.10;;;19.72;28.39;98984.53;5065793;27;124160;-77
2023/05/31 02:21:52;;;;;;;;;;;19.40;38.20;;;19.68;28.68;98984.47;5064986;27;123710;-75
2023/05/31 02:24:20;;;;;;;;;;;19.30;38.30;;;19.66;28.57;98981.22;5067256;27;118947;-77
2023/05/31 02:26:46;;;;;;;;;;;19.30;38.30;;;19.61;28.54;98984.28;5064435;27;118647;-76
2023/05/31 02:29:13;;;;;;;;;;;19.30;38.40;;;19.57;28.67;98977.81;5064621;27;124134;-76
2023/05/31 02:31:44;;;;;;;;;;;19.30;38.40;;;19.57;28.42;98977.81;5064676;27;124000;-77
2023/05/31 02:34:10;;;;;;;;;;;19.30;38.40;;;19.56;28.79;98976.19;5064700;27;119658;-77
2023/05/31 02:36:37;;;;;;;;;;;19.30;38.40;;;19.59;28.71;98986.69;5069298;27;119283;-77
2023/05/31 02:39:03;;;;;;;;;;;19.30;38.40;;;19.62;28.73;98985.94;5083824;27;124652;-81
2023/05/31 02:41:35;;;;;;;;;;;19.30;38.50;;;19.65;28.90;98982.38;5075776;27;124602;-78
2023/05/31 02:44:02;;;;;;;;;;;19.40;38.60;;;19.65;28.62;98973.97;5074199;27;119426;-77
2023/05/31 02:46:28;;;;;;;;;;;19.30;38.60;;;19.68;28.76;98978.88;5085005;27;119005;-78
2023/05/31 02:48:57;;;;;;;;;;;19.40;38.60;;;19.66;28.68;98975.63;5081670;27;124694;-77
2023/05/31 02:51:23;;;;;;;;;;;19.40;38.70;;;19.62;28.81;98971.91;5058861;27;122922;-79
2023/05/31 02:53:50;;;;;;;;;;;19.30;38.70;;;19.63;28.98;98979.13;5083143;27;121008;-76
2023/05/31 02:56:16;;;;;;;;;;;19.30;38.70;;;19.62;28.72;98975.53;5084754;27;119697;-76
2023/05/31 02:58:45;;;;;;;;;;;19.30;38.70;;;19.64;28.95;98978.78;5085049;27;124824;-76
2023/05/31 03:01:11;;;;;;;;;;;19.40;38.80;;;19.61;28.88;98973.91;5085339;27;123914;-76
2023/05/31 03:03:37;;;;;;;;;;;19.30;38.70;;;19.62;28.85;98975.53;5052813;27;119174;-77
2023/05/31 03:06:09;;;;;;;;;;;19.40;38.80;;;19.60;29.09;98983.47;5077845;27;118404;-77
2023/05/31 03:08:35;;;;;;;;;;;19.30;38.80;;;19.57;29.16;98977.81;5083996;27;124376;-76
2023/05/31 03:11:01;;;;;;;;;;;19.20;38.90;;;19.55;29.04;98980.16;5055994;27;123663;-76
2023/05/31 03:13:27;;;;;;;;;;;19.20;38.90;;;19.49;29.22;98979.66;5085845;27;119422;-76
2023/05/31 03:15:59;;;;;;;;;;;19.20;38.90;;;19.48;29.19;98972.44;5077234;27;118640;-77
2023/05/31 03:18:26;;;;;;;;;;;19.20;39.10;;;19.47;29.36;98984.00;5084768;27;124747;-76
2023/05/31 03:20:55;;;;;;;;;;;19.20;39.10;;;19.43;29.33;98976.34;5084992;27;124202;-76
2023/05/31 03:23:22;;;;;;;;;;;19.10;39.20;;;19.40;29.25;98973.47;5069656;27;118714;-78
2023/05/31 03:25:48;;;;;;;;;;;19.10;39.30;;;19.36;29.26;98973.38;5074312;27;118733;-76
2023/05/31 03:28:14;;;;;;;;;;;19.00;39.20;;;19.34;29.42;98974.91;5066454;27;124127;-76
2023/05/31 03:30:44;;;;;;;;;;;19.00;39.40;;;19.31;29.15;98987.66;5064682;27;123858;-76
2023/05/31 03:33:12;;;;;;;;;;;19.00;39.60;;;19.29;29.76;98990.03;5069789;27;119540;-79
2023/05/31 03:35:45;;;;;;;;;;;19.00;39.60;;;19.29;29.64;98984.44;5047725;27;118065;-79
2023/05/31 03:38:11;;;;;;;;;;;19.00;39.60;;;19.31;29.66;98987.66;5090847;27;124504;-76
2023/05/31 03:40:37;;;;;;;;;;;19.00;39.70;;;19.34;29.85;98981.34;5065127;27;126336;-76
2023/05/31 03:43:12;;;;;;;;;;;19.00;39.80;;;19.36;29.86;98987.38;5065688;27;122042;-77
2023/05/31 03:45:38;;;;;;;;;;;19.00;39.90;;;19.38;29.79;98982.22;5072099;27;118979;-76
2023/05/31 03:48:07;;;;;;;;;;;19.00;39.90;;;19.39;30.09;98983.84;5044443;27;124501;-76
2023/05/31 03:50:34;;;;;;;;;;;19.10;40.20;;;19.41;29.89;98983.47;5087105;27;124158;-77
2023/05/31 03:53:00;;;;;;;;;;;19.10;40.20;;;19.46;30.43;98996.41;5088293;27;119916;-76
2023/05/31 03:55:26;;;;;;;;;;;19.10;40.30;;;19.53;30.16;98985.31;5068341;27;118642;-76
2023/05/31 03:57:55;;;;;;;;;;;19.10;40.30;;;19.61;29.88;98987.94;5070280;27;123836;-77
2023/05/31 04:00:24;;;;;;;;;;;19.20;40.40;;;19.67;29.95;98988.47;5070815;27;124304;-76
2023/05/31 04:02:51;;;;;;;;;;;19.20;40.30;;;19.68;29.87;98990.09;5079976;27;119456;-76
2023/05/31 04:05:19;;;;;;;;;;;19.30;40.40;;;19.72;29.58;98996.59;5074925;27;118686;-76
2023/05/31 04:07:47;;;;;;;;;;;19.30;40.40;;;19.77;29.74;98999.09;5085678;27;124562;-77
2023/05/31 04:10:14;;;;;;;;;;;19.30;40.50;;;19.81;29.74;98994.38;5091330;27;123942;-76
2023/05/31 04:12:43;;;;;;;;;;;19.30;40.50;;;19.80;29.97;98989.94;5085557;27;119019;-75
2023/05/31 04:15:10;;;;;;;;;;;19.40;40.50;;;19.79;29.91;99002.31;5066271;27;118901;-76
2023/05/31 04:17:36;;;;;;;;;;;19.40;40.50;;;19.78;29.88;98997.91;5085236;27;123713;-77
2023/05/31 04:20:07;;;;;;;;;;;19.40;40.40;;;19.78;29.74;98994.31;5068553;27;123803;-78
2023/05/31 04:22:35;;;;;;;;;;;19.40;40.40;;;19.77;30.04;98998.28;5088418;27;119444;-76
2023/05/31 04:25:02;;;;;;;;;;;19.40;40.40;;;19.75;29.72;98995.03;5076853;27;119360;-77
2023/05/31 04:27:32;;;;;;;;;;;19.40;40.30;;;19.69;29.45;99002.09;5068140;27;124955;-76
2023/05/31 04:30:01;;;;;;;;;;;19.40;40.20;;;19.65;29.75;99002.81;5087321;27;124379;-76
2023/05/31 04:32:34;;;;;;;;;;;19.40;40.10;;;19.66;29.74;99006.47;5074884;27;120590;-77
2023/05/31 04:35:03;;;;;;;;;;;19.40;40.10;;;19.67;29.80;98999.69;5062300;27;120270;-77
2023/05/31 04:37:35;;;;;;;;;;;19.30;40.20;;;19.64;29.87;99004.00;5062716;27;123730;-77
2023/05/31 04:40:11;;;;;;;;;;;19.30;40.20;;;19.62;29.62;99009.16;5077983;27;124004;-78
2023/05/31 04:42:38;;;;;;;;;;;19.30;40.20;;;19.60;30.08;99016.31;5049183;27;119304;-77
2023/05/31 04:45:08;;;;;;;;;;;19.30;40.40;;;19.61;29.77;99020.72;5083021;27;119142;-79
2023/05/31 04:47:34;;;;;;;;;;;19.20;40.50;;;19.56;30.27;99021.84;5025927;27;124837;-79
2023/05/31 04:50:00;;;;;;;;;;;19.20;40.60;;;19.56;30.28;99019.06;5017019;28;123860;-79
2023/05/31 04:52:33;;;;;;;;;;;19.20;40.60;;;19.52;30.25;99008.94;5037224;27;119383;-78
2023/05/31 04:55:02;;;;;;;;;;;19.10;40.80;;;19.41;30.27;99025.50;5015754;28;118979;-78
2023/05/31 04:57:30;;;;;;;;;;;19.10;40.90;;;19.39;30.54;99025.06;5030257;27;124775;-79
2023/05/31 04:59:57;;;;;;;;;;;19.00;41.00;;;19.41;30.67;99023.50;5008529;28;123100;-78
2023/05/31 05:02:23;;;;;;;;;;;19.00;41.40;;;19.45;30.50;99028.38;5044803;27;119421;-79
2023/05/31 05:04:50;;;;;;;;;;;19.00;41.10;;;19.45;30.60;99017.19;5036122;27;119273;-79
2023/05/31 05:07:23;;;;;;;;;;;19.00;41.10;;;19.48;30.62;99019.25;5032067;27;124362;-81
2023/05/31 05:09:50;;;;;;;;;;;19.10;41.30;;;19.47;30.56;99029.66;5027529;27;123823;-79
2023/05/31 05:12:19;;;;;;;;;;;19.10;41.30;;;19.49;30.88;99027.28;5031294;27;119780;-78
2023/05/31 05:14:47;;;;;;;;;;;19.10;41.50;;;19.53;30.71;99021.75;5007458;27;118807;-79
2023/05/31 05:17:14;;;;;;;;;;;19.20;41.50;;;19.57;30.61;99025.47;5008324;27;123358;-78
2023/05/31 05:19:45;;;;;;;;;;;19.20;41.40;;;19.61;30.65;99029.13;5031816;27;124170;-78
2023/05/31 05:22:14;;;;;;;;;;;19.20;41.40;;;19.64;30.41;99034.03;5034770;27;119553;-80
2023/05/31 05:24:43;;;;;;;;;;;19.20;41.50;;;19.64;30.80;99034.84;5038897;27;119920;-80
2023/05/31 05:27:09;;;;;;;;;;;19.20;41.60;;;19.64;30.67;99034.84;5077748;27;124607;-81
2023/05/31 05:29:36;;;;;;;;;;;19.20;41.60;;;19.68;30.75;99034.94;5040317;27;123366;-79
2023/05/31 05:32:02;;;;;;;;;;;19.30;41.60;;;19.72;30.43;99033.03;5050726;27;119418;-79
2023/05/31 05:34:31;;;;;;;;;;;19.30;41.60;;;19.74;30.57;99033.47;5079649;27;118418;-79
2023/05/31 05:36:57;;;;;;;;;;;19.30;41.70;;;19.76;30.63;99025.50;5051656;27;123738;-80
2023/05/31 05:39:24;;;;;;;;;;;19.40;41.80;;;19.78;31.09;99022.34;5090923;27;124097;-80
2023/05/31 05:41:50;;;;;;;;;;;19.40;42.30;;;19.75;31.12;99017.47;5049013;27;118509;-80
2023/05/31 05:44:19;;;;;;;;;;;19.40;42.20;;;19.78;31.21;99025.94;5087020;27;119306;-80
2023/05/31 05:46:46;;;;;;;;;;;19.40;42.30;;;19.79;31.25;99035.97;5083296;27;124148;-79
2023/05/31 05:49:12;;;;;;;;;;;19.40;42.30;;;19.83;31.13;99036.06;5065208;27;123711;-80
2023/05/31 05:51:38;;;;;;;;;;;19.40;42.40;;;19.85;31.07;99030.88;5070768;27;120198;-79
2023/05/31 05:54:07;;;;;;;;;;;19.40;42.30;;;19.84;31.03;99038.50;5055263;27;118934;-80
2023/05/31 05:56:34;;;;;;;;;;;19.30;42.40;;;19.82;31.20;99032.44;5078749;27;123879;-79
2023/05/31 05:59:02;;;;;;;;;;;19.30;42.40;;;19.81;31.21;99028.00;5064685;27;124046;-81
2023/05/31 06:01:32;;;;;;;;;;;19.30;42.80;;;19.80;31.35;99034.81;5065900;27;119633;-81
2023/05/31 06:03:58;;;;;;;;;;;19.30;42.70;;;19.80;31.52;99036.78;5084851;27;118666;-81
2023/05/31 06:06:24;;;;;;;;;;;19.20;42.90;;;19.84;31.46;99027.28;5079149;27;124663;-81
2023/05/31 06:08:50;;;;;;;;;;;19.30;42.90;;;19.92;31.19;99038.66;5055649;27;123831;-80
2023/05/31 06:11:20;;;;;;;;;;;19.30;43.10;;;19.97;31.17;99038.34;5045773;27;120314;-80
2023/05/31 06:13:46;;;;;;;;;;;19.40;42.90;;;20.04;30.98;99028.09;5081049;27;119674;-80
2023/05/31 06:16:22;;;;;;;;;;;19.50;42.90;;;20.09;31.17;99038.19;5086202;27;124143;-80
2023/05/31 06:18:49;;;;;;;;;;;19.50;42.70;;;20.13;31.07;99033.47;5067077;27;124217;-80
2023/05/31 06:21:15;;;;;;;;;;;19.50;42.50;;;20.13;30.89;99035.47;5083098;27;118298;-80
2023/05/31 06:23:44;;;;;;;;;;;19.50;42.40;;;20.12;30.70;99034.63;5059342;27;118479;-81
2023/05/31 06:26:11;;;;;;;;;;;19.50;42.50;;;20.13;30.88;99035.47;5054858;27;123247;-80
2023/05/31 06:28:37;;;;;;;;;;;19.50;42.50;;;20.18;30.98;99038.78;5082874;27;123401;-80
2023/05/31 06:31:13;;;;;;;;;;;19.50;42.60;;;20.25;31.12;99036.09;5063528;27;120272;-79
2023/05/31 06:33:39;;;;;;;;;;;19.60;42.60;;;20.38;30.58;99035.94;5062084;27;118348;-79
2023/05/31 06:36:11;;;;;;;;;;;19.70;42.60;;;20.48;30.69;99032.53;5076491;27;124325;-80
2023/05/31 06:38:39;;;;;;;;;;;19.80;42.60;;;20.54;30.51;99028.25;5065913;27;124073;-80
2023/05/31 06:41:09;;;;;;;;;;;19.90;42.60;;;20.58;30.85;99031.94;5083538;27;119512;-80
2023/05/31 06:43:35;;;;;;;;;;;19.90;42.50;;;20.68;30.33;99024.88;5044378;27;118213;-81
2023/05/31 06:46:02;;;;;;;;;;;20.00;42.50;;;20.76;30.32;99025.81;5081646;27;123257;-80
2023/05/31 06:48:28;;;;;;;;;;;20.10;42.50;;;20.78;30.19;99021.44;5067564;27;124513;-80
2023/05/31 06:50:56;;;;;;;;;;;20.10;42.30;;;20.79;30.14;99014.63;5058839;27;119111;-80
2023/05/31 06:53:23;;;;;;;;;;;20.10;42.30;;;20.86;30.13;99019.56;5047302;27;118880;-79
2023/05/31 06:55:52;;;;;;;;;;;20.20;42.40;;;20.92;30.07;99024.47;5080407;27;124596;-80
2023/05/31 06:58:24;;;;;;;;;;;20.20;42.20;;;20.99;30.16;99018.19;5078368;27;123996;-80
2023/05/31 07:00:50;;;;;;;;;;;20.30;42.30;;;21.00;30.43;99011.34;5038551;27;120622;-80
2023/05/31 07:03:16;;;;;;;;;;;20.30;42.30;;;21.08;30.49;99020.72;5049453;27;119833;-80
2023/05/31 07:05:46;;;;;;;;;;;20.40;42.30;;;21.11;29.83;99020.75;5078828;27;124372;-80
2023/05/31 07:08:17;;;;;;;;;;;20.40;42.00;;;21.12;30.04;99008.34;5085238;27;124058;-80
2023/05/31 07:10:49;;;;;;;;;;;20.40;42.10;;;21.17;29.77;99012.81;5078188;27;119327;-80
2023/05/31 07:13:15;;;;;;;;;;;20.50;42.20;;;21.26;30.03;99006.94;5061380;27;118428;-80
2023/05/31 07:15:42;;;;;;;;;;;20.60;42.20;;;21.36;29.80;99003.47;5057466;27;124823;-79
2023/05/31 07:18:09;;;;;;;;;;;20.60;41.90;;;21.42;29.56;99007.59;5083554;27;124357;-79
2023/05/31 07:20:35;;;;;;;;;;;20.70;42.00;;;21.48;29.78;99006.06;5087078;27;120591;-79
2023/05/31 07:23:04;;;;;;;;;;;20.80;42.00;;;21.54;29.53;99007.34;5087834;27;118714;-80
2023/05/31 07:25:33;;;;;;;;;;;20.80;41.90;;;21.55;29.46;99006.19;5068236;27;124023;-79
2023/05/31 07:28:10;;;;;;;;;;;20.80;41.90;;;21.57;29.74;99000.16;5073304;27;124082;-81
2023/05/31 07:30:36;;;;;;;;;;;20.80;41.90;;;21.59;29.48;98995.78;5062344;27;119602;-83
2023/05/31 07:33:03;;;;;;;;;;;20.90;42.10;;;21.64;29.56;98997.44;5071112;27;118996;-78
2023/05/31 07:35:35;;;;;;;;;;;20.90;42.10;;;21.67;29.39;99001.50;5081813;27;124348;-79
2023/05/31 07:38:01;;;;;;;;;;;21.00;42.00;;;21.72;29.39;98992.72;5089547;27;124024;-78
2023/05/31 07:40:27;;;;;;;;;;;20.90;41.90;;;21.77;29.34;98986.78;5066248;27;118191;-79
2023/05/31 07:43:00;;;;;;;;;;;21.00;41.90;;;21.86;29.44;98992.91;5062547;27;117676;-80
2023/05/31 07:45:28;;;;;;;;;;;21.10;41.80;;;21.90;29.65;98995.78;5070119;27;124179;-79
2023/05/31 07:47:57;;;;;;;;;;;21.10;41.80;;;21.97;29.22;98976.94;5069025;27;123871;-79
2023/05/31 07:50:23;;;;;;;;;;;21.20;41.80;;;22.06;29.16;98983.09;5069822;27;120075;-79
2023/05/31 07:52:51;;;;;;;;;;;21.30;41.70;;;22.13;29.33;98985.16;5054809;27;118735;-79
2023/05/31 07:55:21;;;;;;;;;;;21.30;41.50;;;22.14;28.94;98986.78;5082881;27;123867;-79
2023/05/31 07:57:47;;;;;;;;;;;21.40;41.40;;;22.17;29.13;98974.75;5074574;27;124006;-79
2023/05/31 08:00:14;;;;;;;;;;;21.40;41.50;;;22.24;29.29;98979.66;5068297;27;119105;-79
2023/05/31 08:02:45;;;;;;;;;;;21.50;41.70;;;22.31;28.98;98985.38;5076693;27;118872;-80
2023/05/31 08:05:13;;;;;;;;;;;21.60;41.50;;;22.38;28.55;98984.63;5067472;27;123211;-80
2023/05/31 08:07:39;;;;;;;;;;;21.60;41.20;;;22.43;28.51;98965.41;5066815;27;123730;-79
2023/05/31 08:10:11;;;;;;;;;;;21.70;41.20;;;22.48;28.87;98978.31;5082622;27;120039;-79
2023/05/31 08:12:38;;;;;;;;;;;21.80;41.10;;;22.52;28.43;98975.53;5073768;27;119453;-80
2023/05/31 08:15:05;;;;;;;;;;;21.80;41.00;;;22.59;28.82;98976.38;5069165;27;124472;-80
2023/05/31 08:17:37;;;;;;;;;;;21.90;41.10;;;22.68;28.37;98976.06;5078466;27;122961;-80
2023/05/31 08:20:06;;;;;;;;;;;22.00;41.00;;;22.75;28.53;98959.22;5062830;27;118852;-79
2023/05/31 08:22:33;;;;;;;;;;;22.10;41.00;;;22.84;28.11;98967.34;5061214;27;117830;-79
2023/05/31 08:24:59;;;;;;;;;;;22.10;40.70;;;22.88;28.08;98963.34;5073802;27;124311;-79
2023/05/31 08:27:28;;;;;;;;;;;22.20;40.70;;;22.88;28.28;98971.00;5072810;27;123940;-80
2023/05/31 08:29:57;;;;;;;;;;;22.20;40.40;;;22.86;28.06;98965.75;5058129;27;118607;-79
2023/05/31 08:32:23;;;;;;;;;;;22.20;40.50;;;22.90;28.22;98963.75;5071036;27;119528;-79
2023/05/31 08:34:49;;;;;;;;;;;22.30;40.60;;;22.96;28.18;98966.22;5068904;27;124679;-80
2023/05/31 08:37:16;;;;;;;;;;;22.30;40.50;;;23.00;28.32;98962.25;5055975;27;124425;-79
2023/05/31 08:39:42;;;;;;;;;;;22.30;40.60;;;23.04;28.15;98960.25;5064777;27;121032;-79
2023/05/31 08:42:47;;;;;;;;;;;22.30;40.60;;;23.05;27.96;98967.53;5063802;27;119648;-79
2023/05/31 08:45:20;;;;;;;;;;;22.40;40.60;;;23.09;28.01;98957.09;5068932;27;124913;-80
2023/05/31 08:47:59;;;;;;;;;;;22.40;40.50;;;23.09;28.13;98945.00;5050787;27;123169;-80
2023/05/31 08:50:31;;;;;;;;;;;22.40;40.40;;;23.10;28.19;98943.78;5049542;27;118556;-79
2023/05/31 08:53:05;;;;;;;;;;;22.40;40.40;;;23.13;28.04;98943.84;5068459;27;117898;-80
2023/05/31 08:55:31;;;;;;;;;;;22.50;40.60;;;23.20;27.89;98953.53;5064751;27;124271;-79
2023/05/31 08:57:58;;;;;;;;;;;22.50;40.50;;;23.24;28.07;98946.72;5065478;27;124495;-79
2023/05/31 09:00:25;;;;;;;;;;;22.50;40.50;;;23.29;28.03;98943.53;5048868;27;117606;-79
2023/05/31 09:02:56;;;;;;;;;;;22.60;40.60;;;23.36;28.03;98945.56;5044273;27;118352;-79
2023/05/31 09:05:22;;;;;;;;;;;22.70;40.50;;;23.41;27.89;98944.38;5065038;27;124261;-79
2023/05/31 09:07:54;;;;;;;;;;;22.70;40.50;;;23.47;27.99;98937.16;5050200;27;124292;-80
2023/05/31 09:10:20;;;;;;;;;;;22.80;40.60;;;23.52;27.91;98940.41;5066437;27;120077;-79
2023/05/31 09:12:46;;;;;;;;;;;22.90;40.40;;;23.57;27.95;98940.00;5065654;27;118741;-80
2023/05/31 09:15:17;;;;;;;;;;;22.90;40.30;;;23.57;27.79;98940.00;5062766;27;124400;-80
2023/05/31 09:17:44;;;;;;;;;;;22.90;40.30;;;23.62;27.69;98938.03;5066951;27;124741;-79
2023/05/31 09:20:13;;;;;;;;;;;23.00;40.20;;;23.64;27.30;98933.59;5063410;27;119578;-79
2023/05/31 09:22:40;;;;;;;;;;;23.00;39.80;;;23.66;27.29;98930.38;5050249;27;118903;-79
2023/05/31 09:25:07;;;;;;;;;;;23.10;39.70;;;23.69;27.44;98938.84;5052726;27;124387;-80
2023/05/31 09:27:39;;;;;;;;;;;23.10;39.80;;;23.75;27.37;98937.31;5063370;27;123983;-80
2023/05/31 09:30:15;;;;;;;;;;;23.10;39.70;;;23.77;27.25;98929.22;5063671;27;120367;-79
2023/05/31 09:32:52;;;;;;;;;;;23.20;39.80;;;23.81;27.41;98935.69;5065098;27;119733;-80
2023/05/31 09:35:27;;;;;;;;;;;23.20;40.10;;;23.85;27.30;98934.91;5051276;27;123966;-80
2023/05/31 09:37:53;;;;;;;;;;;23.30;39.60;;;23.90;26.82;98928.88;5072334;27;123995;-80
2023/05/31 09:40:28;;;;;;;;;;;23.30;39.20;;;23.94;26.41;98932.53;5068076;27;119489;-80
2023/05/31 09:42:55;;;;;;;;;;;23.30;38.80;;;24.00;26.11;98925.28;5060194;27;117963;-80
2023/05/31 09:45:28;;;;;;;;;;;23.40;38.10;;;24.06;26.03;98929.31;5065050;27;125383;-79
2023/05/31 09:47:54;;;;;;;;;;;23.40;37.90;;;24.09;25.93;98934.16;5085876;27;124331;-80
2023/05/31 09:50:25;;;;;;;;;;;23.50;38.00;;;24.13;25.72;98926.50;5064421;27;119574;-80
2023/05/31 09:52:57;;;;;;;;;;;23.50;37.70;;;24.13;25.71;98925.72;5067393;27;118952;-80
2023/05/31 09:55:39;;;;;;;;;;;23.50;37.50;;;24.13;25.70;98928.53;5053208;27;124163;-80
2023/05/31 09:58:05;;;;;;;;;;;23.50;37.20;;;24.16;25.63;98924.91;5077046;27;125093;-79
2023/05/31 10:00:31;;;;;;;;;;;23.60;37.50;;;24.17;25.59;98913.19;5059025;27;119197;-80
2023/05/31 10:03:07;;;;;;;;;;;23.60;37.40;;;24.20;25.58;98926.50;5042304;27;119152;-80
2023/05/31 10:05:39;;;;;;;;;;;23.60;37.40;;;24.25;25.71;98911.19;5074596;27;123642;-79
2023/05/31 10:08:07;;;;;;;;;;;23.70;37.30;;;24.30;25.40;98921.28;5052263;27;124091;-80
2023/05/31 10:10:39;;;;;;;;;;;23.70;37.20;;;24.34;25.39;98922.06;5088784;27;119989;-80
2023/05/31 10:13:06;;;;;;;;;;;23.80;37.00;;;24.37;25.59;98913.63;5067299;27;117825;-80
2023/05/31 10:15:32;;;;;;;;;;;23.80;37.40;;;24.43;25.40;98925.31;5077771;27;123209;-80
2023/05/31 10:18:16;;;;;;;;;;;23.90;37.50;;;24.51;25.20;98921.31;5057059;27;124100;-80
2023/05/31 10:20:52;;;;;;;;;;;24.00;37.20;;;24.57;24.62;98910.41;5071694;27;119648;-80
2023/05/31 10:23:25;;;;;;;;;;;24.00;36.30;;;24.60;24.84;98907.59;5034754;27;119314;-80
2023/05/31 10:26:17;;;;;;;;;;;24.10;36.10;;;24.63;24.65;98918.06;5072501;27;124858;-79
2023/05/31 10:29:06;;;;;;;;;;;24.10;35.90;;;24.64;24.87;98908.41;5067445;27;124312;-80
2023/05/31 10:31:41;;;;;;;;;;;24.10;36.10;;;24.68;24.58;98909.19;5075425;27;118895;-79
2023/05/31 10:34:16;;;;;;;;;;;24.20;36.20;;;24.74;24.91;98900.31;5079369;27;119150;-76
2023/05/31 10:36:42;;;;;;;;;;;24.20;36.40;;;24.79;24.59;98914.84;5067046;27;123970;-74
2023/05/31 10:39:16;;;;;;;;;;;24.30;35.90;;;24.87;24.44;98904.34;5067679;27;123989;-75
2023/05/31 10:41:44;;;;;;;;;;;24.30;35.80;;;24.90;23.43;98895.88;5062628;27;117808;-79
2023/05/31 10:44:20;;;;;;;;;;;25.40;35.30;;;24.94;23.47;98901.50;5070244;27;118485;-79
2023/05/31 10:46:56;;;;;;;;;;;24.40;34.50;;;25.01;23.38;98890.19;5059317;27;124162;-80
2023/05/31 10:49:27;;;;;;;;;;;24.40;34.20;;;25.05;23.28;98899.44;5076452;27;124521;-80
2023/05/31 10:51:53;;;;;;;;;;;24.50;34.40;;;25.06;23.01;98888.94;5070012;27;120628;-80
2023/05/31 10:54:27;;;;;;;;;;;24.50;33.70;;;25.08;22.88;98895.81;5085315;27;118724;-79
2023/05/31 10:56:54;;;;;;;;;;;24.50;34.10;;;25.15;23.47;98883.72;5079391;27;124811;-79
2023/05/31 10:59:27;;;;;;;;;;;24.60;34.60;;;25.23;22.73;98890.16;5061406;27;124413;-80
2023/05/31 11:01:54;;;;;;;;;;;24.70;33.70;;;25.27;23.09;98888.91;5084596;27;119479;-80
2023/05/31 11:04:25;;;;;;;;;;;24.70;33.90;;;25.31;22.61;98883.25;5070795;27;119396;-79
2023/05/31 11:07:17;;;;;;;;;;;24.70;33.50;;;25.36;22.74;98885.63;5081015;27;124523;-79
2023/05/31 11:10:04;;;;;;;;;;;24.70;33.00;;;25.36;22.90;98874.31;5074053;27;124137;-79
2023/05/31 11:12:40;;;;;;;;;;;24.80;33.40;;;25.43;22.38;98879.97;5080344;27;120762;-79
2023/05/31 11:15:17;;;;;;;;;;;24.90;33.40;;;25.49;22.79;98881.13;5060339;27;119768;-79
2023/05/31 11:17:54;;;;;;;;;;;24.90;33.10;;;25.52;22.72;98877.50;5062663;27;124376;-78
2023/05/31 11:20:26;;;;;;;;;;;25.00;33.50;;;25.61;22.56;98881.91;5065827;27;125125;-78